sensor_id;sensor_type;location;lat;lon;timestamp;temperature;humidity
75466;HTU21D;64049;46.290;44.240;2023-11-19T00:00:17;1.92;82.98
75466;HTU21D;64049;46.290;44.240;2023-11-19T00:02:43;1.87;83.04
75466;HTU21D;64049;46.290;44.240;2023-11-19T00:05:10;1.80;83.05
75466;HTU21D;64049;46.290;44.240;2023-11-19T00:07:37;1.72;83.20
75466;HTU21D;64049;46.290;44.240;2023-11-19T00:10:14;1.67;83.29
75466;HTU21D;64049;46.290;44.240;2023-11-19T00:12:42;1.65;83.36
75466;HTU21D;64049;46.290;44.240;2023-11-19T00:15:10;1.62;83.47
75466;HTU21D;64049;46.290;44.240;2023-11-19T00:17:40;1.62;83.57
75466;HTU21D;64049;46.290;44.240;2023-11-19T00:20:17;1.62;83.58
75466;HTU21D;64049;46.290;44.240;2023-11-19T00:22:44;1.58;83.63
75466;HTU21D;64049;46.290;44.240;2023-11-19T00:25:11;1.56;83.70
75466;HTU21D;64049;46.290;44.240;2023-11-19T00:27:37;1.56;83.74
75466;HTU21D;64049;46.290;44.240;2023-11-19T00:30:05;1.54;83.78
75466;HTU21D;64049;46.290;44.240;2023-11-19T00:32:32;1.52;83.73
75466;HTU21D;64049;46.290;44.240;2023-11-19T00:34:59;1.45;83.81
75466;HTU21D;64049;46.290;44.240;2023-11-19T00:37:25;1.43;83.84
75466;HTU21D;64049;46.290;44.240;2023-11-19T00:39:51;1.43;83.84
75466;HTU21D;64049;46.290;44.240;2023-11-19T00:42:17;1.46;83.87
75466;HTU21D;64049;46.290;44.240;2023-11-19T00:44:43;1.50;83.87
75466;HTU21D;64049;46.290;44.240;2023-11-19T00:47:10;1.52;83.84
75466;HTU21D;64049;46.290;44.240;2023-11-19T00:49:36;1.55;83.82
75466;HTU21D;64049;46.290;44.240;2023-11-19T00:52:02;1.58;83.80
75466;HTU21D;64049;46.290;44.240;2023-11-19T00:54:27;1.60;83.78
75466;HTU21D;64049;46.290;44.240;2023-11-19T00:56:53;1.61;83.81
75466;HTU21D;64049;46.290;44.240;2023-11-19T00:59:21;1.61;83.79
75466;HTU21D;64049;46.290;44.240;2023-11-19T01:01:47;1.62;83.74
75466;HTU21D;64049;46.290;44.240;2023-11-19T01:04:17;1.64;83.72
75466;HTU21D;64049;46.290;44.240;2023-11-19T01:06:43;1.67;83.73
75466;HTU21D;64049;46.290;44.240;2023-11-19T01:09:09;1.71;83.71
75466;HTU21D;64049;46.290;44.240;2023-11-19T01:11:35;1.76;83.71
75466;HTU21D;64049;46.290;44.240;2023-11-19T01:14:01;1.80;83.70
75466;HTU21D;64049;46.290;44.240;2023-11-19T01:16:27;1.83;83.62
75466;HTU21D;64049;46.290;44.240;2023-11-19T01:18:53;1.85;83.65
75466;HTU21D;64049;46.290;44.240;2023-11-19T01:21:19;1.90;83.59
75466;HTU21D;64049;46.290;44.240;2023-11-19T01:23:45;1.94;83.61
75466;HTU21D;64049;46.290;44.240;2023-11-19T01:26:12;1.97;83.60
75466;HTU21D;64049;46.290;44.240;2023-11-19T01:28:41;2.00;83.61
75466;HTU21D;64049;46.290;44.240;2023-11-19T01:31:11;2.02;83.61
75466;HTU21D;64049;46.290;44.240;2023-11-19T01:33:39;2.05;83.60
75466;HTU21D;64049;46.290;44.240;2023-11-19T01:36:05;2.07;83.58
75466;HTU21D;64049;46.290;44.240;2023-11-19T01:38:31;2.10;83.62
75466;HTU21D;64049;46.290;44.240;2023-11-19T01:40:57;2.12;83.60
75466;HTU21D;64049;46.290;44.240;2023-11-19T01:43:41;2.12;83.58
75466;HTU21D;64049;46.290;44.240;2023-11-19T01:46:08;2.12;83.59
75466;HTU21D;64049;46.290;44.240;2023-11-19T01:48:40;2.13;83.65
75466;HTU21D;64049;46.290;44.240;2023-11-19T01:51:07;2.14;83.66
75466;HTU21D;64049;46.290;44.240;2023-11-19T01:53:35;2.17;83.69
75466;HTU21D;64049;46.290;44.240;2023-11-19T01:56:02;2.23;83.74
75466;HTU21D;64049;46.290;44.240;2023-11-19T01:58:29;2.25;83.63
75466;HTU21D;64049;46.290;44.240;2023-11-19T02:00:56;2.28;83.61
75466;HTU21D;64049;46.290;44.240;2023-11-19T02:03:22;2.29;83.62
75466;HTU21D;64049;46.290;44.240;2023-11-19T02:05:51;2.34;83.57
75466;HTU21D;64049;46.290;44.240;2023-11-19T02:08:18;2.36;83.55
75466;HTU21D;64049;46.290;44.240;2023-11-19T02:10:46;2.38;83.52
75466;HTU21D;64049;46.290;44.240;2023-11-19T02:13:12;2.37;83.50
75466;HTU21D;64049;46.290;44.240;2023-11-19T02:15:41;2.38;83.45
75466;HTU21D;64049;46.290;44.240;2023-11-19T02:18:27;2.38;83.44
75466;HTU21D;64049;46.290;44.240;2023-11-19T02:20:59;2.37;83.45
75466;HTU21D;64049;46.290;44.240;2023-11-19T02:23:30;2.38;83.45
75466;HTU21D;64049;46.290;44.240;2023-11-19T02:26:18;2.37;83.49
75466;HTU21D;64049;46.290;44.240;2023-11-19T02:28:46;2.40;83.49
75466;HTU21D;64049;46.290;44.240;2023-11-19T02:31:12;2.41;83.50
75466;HTU21D;64049;46.290;44.240;2023-11-19T02:33:38;2.42;83.46
75466;HTU21D;64049;46.290;44.240;2023-11-19T02:36:05;2.44;83.45
75466;HTU21D;64049;46.290;44.240;2023-11-19T02:38:33;2.44;83.45
75466;HTU21D;64049;46.290;44.240;2023-11-19T02:40:59;2.46;83.45
75466;HTU21D;64049;46.290;44.240;2023-11-19T02:43:27;2.47;83.44
75466;HTU21D;64049;46.290;44.240;2023-11-19T02:45:53;2.44;83.41
75466;HTU21D;64049;46.290;44.240;2023-11-19T02:48:21;2.41;83.42
75466;HTU21D;64049;46.290;44.240;2023-11-19T02:50:47;2.39;83.47
75466;HTU21D;64049;46.290;44.240;2023-11-19T02:53:13;2.38;83.52
75466;HTU21D;64049;46.290;44.240;2023-11-19T02:55:39;2.34;83.53
75466;HTU21D;64049;46.290;44.240;2023-11-19T02:58:06;2.34;83.55
75466;HTU21D;64049;46.290;44.240;2023-11-19T03:00:46;2.29;83.58
75466;HTU21D;64049;46.290;44.240;2023-11-19T03:03:24;2.27;83.59
75466;HTU21D;64049;46.290;44.240;2023-11-19T03:05:54;2.27;83.62
75466;HTU21D;64049;46.290;44.240;2023-11-19T03:08:20;2.26;83.65
75466;HTU21D;64049;46.290;44.240;2023-11-19T03:10:47;2.27;83.65
75466;HTU21D;64049;46.290;44.240;2023-11-19T03:13:13;2.29;83.68
75466;HTU21D;64049;46.290;44.240;2023-11-19T03:15:40;2.28;83.68
75466;HTU21D;64049;46.290;44.240;2023-11-19T03:18:07;2.28;83.71
75466;HTU21D;64049;46.290;44.240;2023-11-19T03:20:33;2.28;83.72
75466;HTU21D;64049;46.290;44.240;2023-11-19T03:22:59;2.30;83.75
75466;HTU21D;64049;46.290;44.240;2023-11-19T03:25:28;2.30;83.74
75466;HTU21D;64049;46.290;44.240;2023-11-19T03:28:00;2.32;83.75
75466;HTU21D;64049;46.290;44.240;2023-11-19T03:30:28;2.34;83.77
75466;HTU21D;64049;46.290;44.240;2023-11-19T03:32:55;2.37;83.77
75466;HTU21D;64049;46.290;44.240;2023-11-19T03:35:22;2.40;83.77
75466;HTU21D;64049;46.290;44.240;2023-11-19T03:37:48;2.41;83.74
75466;HTU21D;64049;46.290;44.240;2023-11-19T03:40:13;2.43;83.73
75466;HTU21D;64049;46.290;44.240;2023-11-19T03:42:40;2.44;83.74
75466;HTU21D;64049;46.290;44.240;2023-11-19T03:45:07;2.45;83.74
75466;HTU21D;64049;46.290;44.240;2023-11-19T03:47:34;2.46;83.77
75466;HTU21D;64049;46.290;44.240;2023-11-19T03:50:01;2.49;83.77
75466;HTU21D;64049;46.290;44.240;2023-11-19T03:52:28;2.50;83.76
75466;HTU21D;64049;46.290;44.240;2023-11-19T03:54:55;2.54;83.77
75466;HTU21D;64049;46.290;44.240;2023-11-19T03:57:22;2.57;83.73
75466;HTU21D;64049;46.290;44.240;2023-11-19T03:59:47;2.59;83.71
75466;HTU21D;64049;46.290;44.240;2023-11-19T04:02:13;2.61;83.72
75466;HTU21D;64049;46.290;44.240;2023-11-19T04:04:39;2.64;83.71
75466;HTU21D;64049;46.290;44.240;2023-11-19T04:07:05;2.67;83.69
75466;HTU21D;64049;46.290;44.240;2023-11-19T04:09:31;2.66;83.67
75466;HTU21D;64049;46.290;44.240;2023-11-19T04:12:01;2.65;83.66
75466;HTU21D;64049;46.290;44.240;2023-11-19T04:14:27;2.66;83.72
75466;HTU21D;64049;46.290;44.240;2023-11-19T04:16:53;2.64;83.74
75466;HTU21D;64049;46.290;44.240;2023-11-19T04:19:19;2.66;83.78
75466;HTU21D;64049;46.290;44.240;2023-11-19T04:21:45;2.67;83.81
75466;HTU21D;64049;46.290;44.240;2023-11-19T04:24:12;2.69;83.82
75466;HTU21D;64049;46.290;44.240;2023-11-19T04:26:43;2.70;83.81
75466;HTU21D;64049;46.290;44.240;2023-11-19T04:29:14;2.71;83.82
75466;HTU21D;64049;46.290;44.240;2023-11-19T04:31:41;2.72;83.83
75466;HTU21D;64049;46.290;44.240;2023-11-19T04:34:07;2.73;83.84
75466;HTU21D;64049;46.290;44.240;2023-11-19T04:36:33;2.72;83.84
75466;HTU21D;64049;46.290;44.240;2023-11-19T04:39:00;2.71;83.83
75466;HTU21D;64049;46.290;44.240;2023-11-19T04:41:27;2.71;83.83
75466;HTU21D;64049;46.290;44.240;2023-11-19T04:43:55;2.71;83.85
75466;HTU21D;64049;46.290;44.240;2023-11-19T04:46:22;2.72;83.86
75466;HTU21D;64049;46.290;44.240;2023-11-19T04:48:49;2.70;83.87
75466;HTU21D;64049;46.290;44.240;2023-11-19T04:51:16;2.70;83.90
75466;HTU21D;64049;46.290;44.240;2023-11-19T04:53:42;2.70;83.94
75466;HTU21D;64049;46.290;44.240;2023-11-19T04:56:09;2.71;83.95
75466;HTU21D;64049;46.290;44.240;2023-11-19T04:58:35;2.71;83.97
75466;HTU21D;64049;46.290;44.240;2023-11-19T05:01:04;2.72;83.96
75466;HTU21D;64049;46.290;44.240;2023-11-19T05:03:33;2.73;83.96
75466;HTU21D;64049;46.290;44.240;2023-11-19T05:05:59;2.74;83.97
75466;HTU21D;64049;46.290;44.240;2023-11-19T05:08:25;2.74;83.98
75466;HTU21D;64049;46.290;44.240;2023-11-19T05:10:50;2.76;83.98
75466;HTU21D;64049;46.290;44.240;2023-11-19T05:13:16;2.76;84.00
75466;HTU21D;64049;46.290;44.240;2023-11-19T05:15:42;2.76;84.00
75466;HTU21D;64049;46.290;44.240;2023-11-19T05:18:08;2.79;84.02
75466;HTU21D;64049;46.290;44.240;2023-11-19T05:20:34;2.80;84.04
75466;HTU21D;64049;46.290;44.240;2023-11-19T05:23:00;2.80;84.06
75466;HTU21D;64049;46.290;44.240;2023-11-19T05:25:27;2.82;84.07
75466;HTU21D;64049;46.290;44.240;2023-11-19T05:27:53;2.85;84.07
75466;HTU21D;64049;46.290;44.240;2023-11-19T05:30:19;2.87;84.07
75466;HTU21D;64049;46.290;44.240;2023-11-19T05:32:45;2.88;84.10
75466;HTU21D;64049;46.290;44.240;2023-11-19T05:35:11;2.88;84.11
75466;HTU21D;64049;46.290;44.240;2023-11-19T05:37:37;2.90;84.13
75466;HTU21D;64049;46.290;44.240;2023-11-19T05:40:05;2.93;84.14
75466;HTU21D;64049;46.290;44.240;2023-11-19T05:42:40;2.96;84.13
75466;HTU21D;64049;46.290;44.240;2023-11-19T05:45:07;2.99;84.14
75466;HTU21D;64049;46.290;44.240;2023-11-19T05:47:33;3.00;84.13
75466;HTU21D;64049;46.290;44.240;2023-11-19T05:49:59;3.04;84.11
75466;HTU21D;64049;46.290;44.240;2023-11-19T05:52:25;3.08;84.13
75466;HTU21D;64049;46.290;44.240;2023-11-19T05:54:51;3.12;84.09
75466;HTU21D;64049;46.290;44.240;2023-11-19T05:57:19;3.15;84.10
75466;HTU21D;64049;46.290;44.240;2023-11-19T05:59:51;3.18;84.07
75466;HTU21D;64049;46.290;44.240;2023-11-19T06:02:17;3.23;84.07
75466;HTU21D;64049;46.290;44.240;2023-11-19T06:04:43;3.27;84.05
75466;HTU21D;64049;46.290;44.240;2023-11-19T06:07:10;3.30;84.03
75466;HTU21D;64049;46.290;44.240;2023-11-19T06:09:36;3.32;84.03
75466;HTU21D;64049;46.290;44.240;2023-11-19T06:12:02;3.34;84.03
75466;HTU21D;64049;46.290;44.240;2023-11-19T06:14:28;3.39;84.01
75466;HTU21D;64049;46.290;44.240;2023-11-19T06:16:54;3.41;83.99
75466;HTU21D;64049;46.290;44.240;2023-11-19T06:19:19;3.42;83.98
75466;HTU21D;64049;46.290;44.240;2023-11-19T06:21:45;3.46;83.99
75466;HTU21D;64049;46.290;44.240;2023-11-19T06:24:11;3.49;83.94
75466;HTU21D;64049;46.290;44.240;2023-11-19T06:26:38;3.52;83.94
75466;HTU21D;64049;46.290;44.240;2023-11-19T06:29:04;3.54;83.90
75466;HTU21D;64049;46.290;44.240;2023-11-19T06:31:30;3.56;83.89
75466;HTU21D;64049;46.290;44.240;2023-11-19T06:33:56;3.59;83.87
75466;HTU21D;64049;46.290;44.240;2023-11-19T06:36:22;3.61;83.86
75466;HTU21D;64049;46.290;44.240;2023-11-19T06:38:48;3.61;83.84
75466;HTU21D;64049;46.290;44.240;2023-11-19T06:41:14;3.62;83.86
75466;HTU21D;64049;46.290;44.240;2023-11-19T06:43:40;3.62;83.86
75466;HTU21D;64049;46.290;44.240;2023-11-19T06:46:14;3.62;83.90
75466;HTU21D;64049;46.290;44.240;2023-11-19T06:48:40;3.67;83.90
75466;HTU21D;64049;46.290;44.240;2023-11-19T06:51:08;3.70;83.93
75466;HTU21D;64049;46.290;44.240;2023-11-19T06:53:34;3.73;83.94
75466;HTU21D;64049;46.290;44.240;2023-11-19T06:56:01;3.77;83.93
75466;HTU21D;64049;46.290;44.240;2023-11-19T06:58:28;3.82;83.94
75466;HTU21D;64049;46.290;44.240;2023-11-19T07:00:54;3.84;83.97
75466;HTU21D;64049;46.290;44.240;2023-11-19T07:03:20;3.88;83.98
75466;HTU21D;64049;46.290;44.240;2023-11-19T07:05:46;3.92;83.98
75466;HTU21D;64049;46.290;44.240;2023-11-19T07:08:12;3.95;83.97
75466;HTU21D;64049;46.290;44.240;2023-11-19T07:10:38;3.95;83.98
75466;HTU21D;64049;46.290;44.240;2023-11-19T07:13:04;3.99;84.00
75466;HTU21D;64049;46.290;44.240;2023-11-19T07:15:31;4.01;84.02
75466;HTU21D;64049;46.290;44.240;2023-11-19T07:17:58;4.04;84.05
75466;HTU21D;64049;46.290;44.240;2023-11-19T07:20:25;4.06;84.05
75466;HTU21D;64049;46.290;44.240;2023-11-19T07:22:53;4.09;84.09
75466;HTU21D;64049;46.290;44.240;2023-11-19T07:25:20;4.14;84.08
75466;HTU21D;64049;46.290;44.240;2023-11-19T07:27:46;4.18;84.12
75466;HTU21D;64049;46.290;44.240;2023-11-19T07:30:13;4.19;84.13
75466;HTU21D;64049;46.290;44.240;2023-11-19T07:32:39;4.23;84.19
75466;HTU21D;64049;46.290;44.240;2023-11-19T07:35:05;4.30;84.21
75466;HTU21D;64049;46.290;44.240;2023-11-19T07:37:32;4.35;84.23
75466;HTU21D;64049;46.290;44.240;2023-11-19T07:39:58;4.38;84.23
75466;HTU21D;64049;46.290;44.240;2023-11-19T07:42:24;4.42;84.23
75466;HTU21D;64049;46.290;44.240;2023-11-19T07:44:50;4.45;84.23
75466;HTU21D;64049;46.290;44.240;2023-11-19T07:47:16;4.48;84.23
75466;HTU21D;64049;46.290;44.240;2023-11-19T07:49:41;4.51;84.24
75466;HTU21D;64049;46.290;44.240;2023-11-19T07:52:09;4.53;84.26
75466;HTU21D;64049;46.290;44.240;2023-11-19T07:54:35;4.56;84.28
75466;HTU21D;64049;46.290;44.240;2023-11-19T07:57:01;4.59;84.30
75466;HTU21D;64049;46.290;44.240;2023-11-19T07:59:27;4.59;84.33
75466;HTU21D;64049;46.290;44.240;2023-11-19T08:01:56;4.62;84.35
75466;HTU21D;64049;46.290;44.240;2023-11-19T08:04:25;4.63;84.37
75466;HTU21D;64049;46.290;44.240;2023-11-19T08:06:51;4.64;84.38
75466;HTU21D;64049;46.290;44.240;2023-11-19T08:09:17;4.66;84.40
75466;HTU21D;64049;46.290;44.240;2023-11-19T08:11:43;4.69;84.44
75466;HTU21D;64049;46.290;44.240;2023-11-19T08:14:10;4.69;84.45
75466;HTU21D;64049;46.290;44.240;2023-11-19T08:16:39;4.74;84.45
75466;HTU21D;64049;46.290;44.240;2023-11-19T08:19:05;4.77;84.45
75466;HTU21D;64049;46.290;44.240;2023-11-19T08:21:31;4.79;84.45
75466;HTU21D;64049;46.290;44.240;2023-11-19T08:23:57;4.80;84.44
75466;HTU21D;64049;46.290;44.240;2023-11-19T08:26:23;4.82;84.45
75466;HTU21D;64049;46.290;44.240;2023-11-19T08:28:49;4.86;84.46
75466;HTU21D;64049;46.290;44.240;2023-11-19T08:31:15;4.88;84.48
75466;HTU21D;64049;46.290;44.240;2023-11-19T08:33:40;4.91;84.50
75466;HTU21D;64049;46.290;44.240;2023-11-19T08:36:07;4.91;84.51
75466;HTU21D;64049;46.290;44.240;2023-11-19T08:38:33;4.94;84.49
75466;HTU21D;64049;46.290;44.240;2023-11-19T08:40:59;4.95;84.49
75466;HTU21D;64049;46.290;44.240;2023-11-19T08:43:27;4.96;84.53
75466;HTU21D;64049;46.290;44.240;2023-11-19T08:45:53;4.97;84.52
75466;HTU21D;64049;46.290;44.240;2023-11-19T08:48:19;4.96;84.55
75466;HTU21D;64049;46.290;44.240;2023-11-19T08:50:45;5.00;84.59
75466;HTU21D;64049;46.290;44.240;2023-11-19T08:53:11;5.01;84.55
75466;HTU21D;64049;46.290;44.240;2023-11-19T08:55:37;5.01;84.59
75466;HTU21D;64049;46.290;44.240;2023-11-19T08:58:03;5.01;84.63
75466;HTU21D;64049;46.290;44.240;2023-11-19T09:00:29;5.01;84.64
75466;HTU21D;64049;46.290;44.240;2023-11-19T09:02:55;5.01;84.67
75466;HTU21D;64049;46.290;44.240;2023-11-19T09:05:21;5.03;84.70
75466;HTU21D;64049;46.290;44.240;2023-11-19T09:07:47;5.04;84.69
75466;HTU21D;64049;46.290;44.240;2023-11-19T09:10:15;5.03;84.71
75466;HTU21D;64049;46.290;44.240;2023-11-19T09:12:41;5.04;84.71
75466;HTU21D;64049;46.290;44.240;2023-11-19T09:15:07;5.02;84.69
75466;HTU21D;64049;46.290;44.240;2023-11-19T09:17:36;5.01;84.71
75466;HTU21D;64049;46.290;44.240;2023-11-19T09:20:02;4.98;84.71
75466;HTU21D;64049;46.290;44.240;2023-11-19T09:22:28;4.98;84.73
75466;HTU21D;64049;46.290;44.240;2023-11-19T09:24:54;4.98;84.73
75466;HTU21D;64049;46.290;44.240;2023-11-19T09:27:19;4.96;84.71
75466;HTU21D;64049;46.290;44.240;2023-11-19T09:29:46;4.97;84.71
75466;HTU21D;64049;46.290;44.240;2023-11-19T09:32:14;4.95;84.71
75466;HTU21D;64049;46.290;44.240;2023-11-19T09:34:40;4.95;84.71
75466;HTU21D;64049;46.290;44.240;2023-11-19T09:37:06;4.93;84.72
75466;HTU21D;64049;46.290;44.240;2023-11-19T09:39:32;4.91;84.74
75466;HTU21D;64049;46.290;44.240;2023-11-19T09:41:58;4.92;84.74
75466;HTU21D;64049;46.290;44.240;2023-11-19T09:44:24;4.93;84.74
75466;HTU21D;64049;46.290;44.240;2023-11-19T09:46:51;4.94;84.73
75466;HTU21D;64049;46.290;44.240;2023-11-19T09:49:21;4.94;84.73
75466;HTU21D;64049;46.290;44.240;2023-11-19T09:51:48;4.94;84.72
75466;HTU21D;64049;46.290;44.240;2023-11-19T09:54:14;4.95;84.71
75466;HTU21D;64049;46.290;44.240;2023-11-19T09:56:40;4.97;84.71
75466;HTU21D;64049;46.290;44.240;2023-11-19T09:59:06;4.96;84.71
75466;HTU21D;64049;46.290;44.240;2023-11-19T10:01:32;4.97;84.70
75466;HTU21D;64049;46.290;44.240;2023-11-19T10:04:00;4.96;84.70
75466;HTU21D;64049;46.290;44.240;2023-11-19T10:06:27;4.97;84.71
75466;HTU21D;64049;46.290;44.240;2023-11-19T10:08:53;4.97;84.71
75466;HTU21D;64049;46.290;44.240;2023-11-19T10:11:18;4.97;84.70
75466;HTU21D;64049;46.290;44.240;2023-11-19T10:13:45;4.97;84.71
75466;HTU21D;64049;46.290;44.240;2023-11-19T10:16:13;4.96;84.72
75466;HTU21D;64049;46.290;44.240;2023-11-19T10:18:49;4.97;84.72
75466;HTU21D;64049;46.290;44.240;2023-11-19T10:21:18;4.98;84.71
75466;HTU21D;64049;46.290;44.240;2023-11-19T10:23:55;4.98;84.69
75466;HTU21D;64049;46.290;44.240;2023-11-19T10:26:27;4.98;84.71
75466;HTU21D;64049;46.290;44.240;2023-11-19T10:28:53;5.00;84.70
75466;HTU21D;64049;46.290;44.240;2023-11-19T10:31:20;5.01;84.70
75466;HTU21D;64049;46.290;44.240;2023-11-19T10:33:51;5.01;84.71
75466;HTU21D;64049;46.290;44.240;2023-11-19T10:36:17;5.00;84.71
75466;HTU21D;64049;46.290;44.240;2023-11-19T10:38:56;5.00;84.68
75466;HTU21D;64049;46.290;44.240;2023-11-19T10:41:32;4.98;84.70
75466;HTU21D;64049;46.290;44.240;2023-11-19T10:43:59;5.00;84.70
75466;HTU21D;64049;46.290;44.240;2023-11-19T10:46:41;4.98;84.70
75466;HTU21D;64049;46.290;44.240;2023-11-19T10:49:08;4.96;84.69
75466;HTU21D;64049;46.290;44.240;2023-11-19T10:51:34;4.91;84.72
75466;HTU21D;64049;46.290;44.240;2023-11-19T10:54:05;4.90;84.74
75466;HTU21D;64049;46.290;44.240;2023-11-19T10:56:32;4.89;84.76
75466;HTU21D;64049;46.290;44.240;2023-11-19T10:58:59;4.90;84.78
75466;HTU21D;64049;46.290;44.240;2023-11-19T11:01:44;4.91;84.77
75466;HTU21D;64049;46.290;44.240;2023-11-19T11:04:23;4.90;84.79
75466;HTU21D;64049;46.290;44.240;2023-11-19T11:06:51;4.89;84.80
75466;HTU21D;64049;46.290;44.240;2023-11-19T11:09:17;4.89;84.78
75466;HTU21D;64049;46.290;44.240;2023-11-19T11:11:47;4.89;84.80
75466;HTU21D;64049;46.290;44.240;2023-11-19T11:14:13;4.87;84.80
75466;HTU21D;64049;46.290;44.240;2023-11-19T11:16:43;4.86;84.80
75466;HTU21D;64049;46.290;44.240;2023-11-19T11:19:13;4.84;84.81
75466;HTU21D;64049;46.290;44.240;2023-11-19T11:21:40;4.86;84.83
75466;HTU21D;64049;46.290;44.240;2023-11-19T11:39:57;4.65;84.85
75466;HTU21D;64049;46.290;44.240;2023-11-19T11:45:11;4.52;84.95
75466;HTU21D;64049;46.290;44.240;2023-11-19T11:50:15;4.45;84.99
75466;HTU21D;64049;46.290;44.240;2023-11-19T11:58:00;4.39;85.11
75466;HTU21D;64049;46.290;44.240;2023-11-19T12:03:02;4.38;85.17
75466;HTU21D;64049;46.290;44.240;2023-11-19T12:05:29;4.37;85.17
75466;HTU21D;64049;46.290;44.240;2023-11-19T12:07:56;4.37;85.19
75466;HTU21D;64049;46.290;44.240;2023-11-19T12:10:29;4.36;85.17
75466;HTU21D;64049;46.290;44.240;2023-11-19T12:13:00;4.36;85.19
75466;HTU21D;64049;46.290;44.240;2023-11-19T12:15:27;4.35;85.20
75466;HTU21D;64049;46.290;44.240;2023-11-19T12:17:54;4.35;85.24
75466;HTU21D;64049;46.290;44.240;2023-11-19T12:20:25;4.34;85.27
75466;HTU21D;64049;46.290;44.240;2023-11-19T12:22:52;4.34;85.28
75466;HTU21D;64049;46.290;44.240;2023-11-19T12:25:20;4.35;85.29
75466;HTU21D;64049;46.290;44.240;2023-11-19T12:27:48;4.36;85.29
75466;HTU21D;64049;46.290;44.240;2023-11-19T12:30:26;4.36;85.29
75466;HTU21D;64049;46.290;44.240;2023-11-19T12:32:53;4.39;85.31
75466;HTU21D;64049;46.290;44.240;2023-11-19T12:35:19;4.42;85.30
75466;HTU21D;64049;46.290;44.240;2023-11-19T12:37:47;4.43;85.32
75466;HTU21D;64049;46.290;44.240;2023-11-19T12:40:18;4.43;85.32
75466;HTU21D;64049;46.290;44.240;2023-11-19T12:42:45;4.46;85.32
75466;HTU21D;64049;46.290;44.240;2023-11-19T12:45:12;4.45;85.33
75466;HTU21D;64049;46.290;44.240;2023-11-19T12:47:39;4.46;85.38
75466;HTU21D;64049;46.290;44.240;2023-11-19T12:50:07;4.48;85.36
75466;HTU21D;64049;46.290;44.240;2023-11-19T12:52:34;4.50;85.38
75466;HTU21D;64049;46.290;44.240;2023-11-19T12:55:01;4.51;85.40
75466;HTU21D;64049;46.290;44.240;2023-11-19T12:57:38;4.53;85.40
75466;HTU21D;64049;46.290;44.240;2023-11-19T13:00:05;4.56;85.40
75466;HTU21D;64049;46.290;44.240;2023-11-19T13:02:53;4.56;85.39
75466;HTU21D;64049;46.290;44.240;2023-11-19T13:05:28;4.59;85.42
75466;HTU21D;64049;46.290;44.240;2023-11-19T13:10:26;4.62;85.42
75466;HTU21D;64049;46.290;44.240;2023-11-19T13:13:08;4.65;85.42
75466;HTU21D;64049;46.290;44.240;2023-11-19T13:15:35;4.68;85.45
75466;HTU21D;64049;46.290;44.240;2023-11-19T13:18:02;4.69;85.44
75466;HTU21D;64049;46.290;44.240;2023-11-19T13:20:28;4.71;85.45
75466;HTU21D;64049;46.290;44.240;2023-11-19T13:22:59;4.72;85.45
75466;HTU21D;64049;46.290;44.240;2023-11-19T13:25:26;4.75;85.48
75466;HTU21D;64049;46.290;44.240;2023-11-19T13:27:52;4.77;85.47
75466;HTU21D;64049;46.290;44.240;2023-11-19T13:30:18;4.79;85.48
75466;HTU21D;64049;46.290;44.240;2023-11-19T13:32:44;4.81;85.46
75466;HTU21D;64049;46.290;44.240;2023-11-19T13:35:15;4.82;85.46
75466;HTU21D;64049;46.290;44.240;2023-11-19T13:37:41;4.82;85.44
75466;HTU21D;64049;46.290;44.240;2023-11-19T13:40:07;4.84;85.47
75466;HTU21D;64049;46.290;44.240;2023-11-19T13:42:38;4.88;85.46
75466;HTU21D;64049;46.290;44.240;2023-11-19T13:45:10;4.89;85.45
75466;HTU21D;64049;46.290;44.240;2023-11-19T13:47:41;4.90;85.48
75466;HTU21D;64049;46.290;44.240;2023-11-19T13:50:17;4.92;85.45
75466;HTU21D;64049;46.290;44.240;2023-11-19T13:52:44;4.93;85.45
75466;HTU21D;64049;46.290;44.240;2023-11-19T13:55:12;4.94;85.45
75466;HTU21D;64049;46.290;44.240;2023-11-19T13:57:39;4.95;85.45
75466;HTU21D;64049;46.290;44.240;2023-11-19T14:00:07;4.95;85.45
75466;HTU21D;64049;46.290;44.240;2023-11-19T14:02:42;4.97;85.49
75466;HTU21D;64049;46.290;44.240;2023-11-19T14:05:09;4.97;85.48
75466;HTU21D;64049;46.290;44.240;2023-11-19T14:07:36;5.01;85.50
75466;HTU21D;64049;46.290;44.240;2023-11-19T14:10:03;4.98;85.55
75466;HTU21D;64049;46.290;44.240;2023-11-19T14:12:30;5.01;85.56
75466;HTU21D;64049;46.290;44.240;2023-11-19T14:14:59;5.03;85.55
75466;HTU21D;64049;46.290;44.240;2023-11-19T14:17:26;5.05;85.57
75466;HTU21D;64049;46.290;44.240;2023-11-19T14:19:52;5.06;85.60
75466;HTU21D;64049;46.290;44.240;2023-11-19T14:22:18;5.07;85.62
75466;HTU21D;64049;46.290;44.240;2023-11-19T14:24:44;5.09;85.65
75466;HTU21D;64049;46.290;44.240;2023-11-19T14:27:10;5.11;85.66
75466;HTU21D;64049;46.290;44.240;2023-11-19T14:29:37;5.12;85.68
75466;HTU21D;64049;46.290;44.240;2023-11-19T14:32:03;5.15;85.67
75466;HTU21D;64049;46.290;44.240;2023-11-19T14:45:05;5.71;86.19
75466;HTU21D;64049;46.290;44.240;2023-11-19T14:47:31;5.70;86.06
75466;HTU21D;64049;46.290;44.240;2023-11-19T14:49:57;5.67;85.93
75466;HTU21D;64049;46.290;44.240;2023-11-19T14:52:23;5.62;85.84
75466;HTU21D;64049;46.290;44.240;2023-11-19T14:54:48;5.59;85.78
75466;HTU21D;64049;46.290;44.240;2023-11-19T14:57:16;5.54;85.79
75466;HTU21D;64049;46.290;44.240;2023-11-19T14:59:42;5.52;85.77
75466;HTU21D;64049;46.290;44.240;2023-11-19T15:02:08;5.51;85.76
75466;HTU21D;64049;46.290;44.240;2023-11-19T15:04:35;5.49;85.77
75466;HTU21D;64049;46.290;44.240;2023-11-19T15:07:00;5.49;85.78
75466;HTU21D;64049;46.290;44.240;2023-11-19T15:09:27;5.49;85.81
75466;HTU21D;64049;46.290;44.240;2023-11-19T15:11:56;5.48;85.82
75466;HTU21D;64049;46.290;44.240;2023-11-19T15:14:24;5.48;85.84
75466;HTU21D;64049;46.290;44.240;2023-11-19T15:16:49;5.49;85.83
75466;HTU21D;64049;46.290;44.240;2023-11-19T15:19:17;5.50;85.85
75466;HTU21D;64049;46.290;44.240;2023-11-19T15:21:43;5.49;85.87
75466;HTU21D;64049;46.290;44.240;2023-11-19T15:24:09;5.51;85.88
75466;HTU21D;64049;46.290;44.240;2023-11-19T15:26:37;5.52;85.91
75466;HTU21D;64049;46.290;44.240;2023-11-19T15:29:04;5.53;85.90
75466;HTU21D;64049;46.290;44.240;2023-11-19T15:31:30;5.55;85.92
75466;HTU21D;64049;46.290;44.240;2023-11-19T15:33:56;5.55;85.93
75466;HTU21D;64049;46.290;44.240;2023-11-19T15:36:22;5.56;85.96
75466;HTU21D;64049;46.290;44.240;2023-11-19T15:38:48;5.56;85.96
75466;HTU21D;64049;46.290;44.240;2023-11-19T15:41:14;5.56;85.97
75466;HTU21D;64049;46.290;44.240;2023-11-19T15:43:40;5.59;85.99
75466;HTU21D;64049;46.290;44.240;2023-11-19T15:46:08;5.59;86.01
75466;HTU21D;64049;46.290;44.240;2023-11-19T15:48:34;5.61;86.03
75466;HTU21D;64049;46.290;44.240;2023-11-19T15:51:01;5.62;86.02
75466;HTU21D;64049;46.290;44.240;2023-11-19T15:53:29;5.63;86.04
75466;HTU21D;64049;46.290;44.240;2023-11-19T15:55:57;5.63;86.03
75466;HTU21D;64049;46.290;44.240;2023-11-19T15:58:23;5.63;86.03